KRBG - Roseburg, Oregon, USA
Updated: Fri, 26-May-2017 10:53pm PDT
Clear
Clear
 Wind from calm
Wind: Calm
Temperature: 66°F , 19°C
Dew Point: 48°F , 9°C
Humidity: 52%
Barometer: 29.98 inHg , 1015.2 hPa
Clouds: Clear
Visibility: 10 miles , 16 km
2017/05/27 05:53 KRBG 270553Z AUTO 00000KT 10SM CLR 19/09 A2998 RMK AO2 SLP149 T01940094 10294 20194 51024

Metar display script from Saratoga-Weather.org